sensor_id;sensor_type;location;lat;lon;timestamp;P1;durP1;ratioP1;P2;durP2;ratioP2
12145;SDS011;6136;47.032;15.398;2023-06-22T00:01:33;11.02;;;7.00;;
12145;SDS011;6136;47.032;15.398;2023-06-22T00:04:01;14.80;;;7.93;;
12145;SDS011;6136;47.032;15.398;2023-06-22T00:06:29;8.68;;;6.70;;
12145;SDS011;6136;47.032;15.398;2023-06-22T00:08:58;10.27;;;6.30;;
12145;SDS011;6136;47.032;15.398;2023-06-22T00:11:27;8.88;;;6.40;;
12145;SDS011;6136;47.032;15.398;2023-06-22T00:13:55;12.10;;;6.50;;
12145;SDS011;6136;47.032;15.398;2023-06-22T00:16:23;13.38;;;6.72;;
12145;SDS011;6136;47.032;15.398;2023-06-22T00:18:52;12.50;;;7.10;;
12145;SDS011;6136;47.032;15.398;2023-06-22T00:21:20;14.93;;;6.78;;
12145;SDS011;6136;47.032;15.398;2023-06-22T00:23:48;13.73;;;6.57;;
12145;SDS011;6136;47.032;15.398;2023-06-22T00:26:16;13.02;;;6.65;;
12145;SDS011;6136;47.032;15.398;2023-06-22T00:28:46;14.15;;;6.72;;
12145;SDS011;6136;47.032;15.398;2023-06-22T00:31:14;9.18;;;6.70;;
12145;SDS011;6136;47.032;15.398;2023-06-22T00:33:42;13.07;;;6.85;;
12145;SDS011;6136;47.032;15.398;2023-06-22T00:36:10;8.98;;;6.72;;
12145;SDS011;6136;47.032;15.398;2023-06-22T00:38:42;17.35;;;7.90;;
12145;SDS011;6136;47.032;15.398;2023-06-22T00:41:10;9.07;;;7.28;;
12145;SDS011;6136;47.032;15.398;2023-06-22T00:43:38;10.18;;;7.50;;
12145;SDS011;6136;47.032;15.398;2023-06-22T00:46:09;13.50;;;7.32;;
12145;SDS011;6136;47.032;15.398;2023-06-22T00:48:38;14.13;;;7.70;;
12145;SDS011;6136;47.032;15.398;2023-06-22T00:51:08;11.20;;;6.95;;
12145;SDS011;6136;47.032;15.398;2023-06-22T00:53:38;12.43;;;6.55;;
12145;SDS011;6136;47.032;15.398;2023-06-22T00:56:07;15.32;;;7.85;;
12145;SDS011;6136;47.032;15.398;2023-06-22T00:58:38;11.48;;;6.68;;
12145;SDS011;6136;47.032;15.398;2023-06-22T01:01:09;12.18;;;7.45;;
12145;SDS011;6136;47.032;15.398;2023-06-22T01:03:38;11.10;;;6.93;;
12145;SDS011;6136;47.032;15.398;2023-06-22T01:06:07;9.93;;;7.55;;
12145;SDS011;6136;47.032;15.398;2023-06-22T01:08:40;13.95;;;8.75;;
12145;SDS011;6136;47.032;15.398;2023-06-22T01:11:16;16.05;;;7.55;;
12145;SDS011;6136;47.032;15.398;2023-06-22T01:13:50;11.05;;;6.97;;
12145;SDS011;6136;47.032;15.398;2023-06-22T01:16:28;12.77;;;6.53;;
12145;SDS011;6136;47.032;15.398;2023-06-22T01:19:00;14.70;;;7.65;;
12145;SDS011;6136;47.032;15.398;2023-06-22T01:21:37;13.93;;;7.65;;
12145;SDS011;6136;47.032;15.398;2023-06-22T01:24:16;10.90;;;6.75;;
12145;SDS011;6136;47.032;15.398;2023-06-22T01:26:54;14.45;;;6.53;;
12145;SDS011;6136;47.032;15.398;2023-06-22T01:29:29;11.98;;;6.65;;
12145;SDS011;6136;47.032;15.398;2023-06-22T01:31:59;7.88;;;6.20;;
12145;SDS011;6136;47.032;15.398;2023-06-22T01:34:34;13.88;;;6.82;;
12145;SDS011;6136;47.032;15.398;2023-06-22T01:37:03;10.05;;;6.82;;
12145;SDS011;6136;47.032;15.398;2023-06-22T01:39:32;8.30;;;5.55;;
12145;SDS011;6136;47.032;15.398;2023-06-22T01:42:01;12.65;;;7.43;;
12145;SDS011;6136;47.032;15.398;2023-06-22T01:44:33;10.75;;;6.75;;
12145;SDS011;6136;47.032;15.398;2023-06-22T01:47:02;13.73;;;7.38;;
12145;SDS011;6136;47.032;15.398;2023-06-22T01:49:30;10.10;;;6.93;;
12145;SDS011;6136;47.032;15.398;2023-06-22T01:51:58;10.57;;;6.97;;
12145;SDS011;6136;47.032;15.398;2023-06-22T01:54:27;12.40;;;6.90;;
12145;SDS011;6136;47.032;15.398;2023-06-22T01:56:55;12.85;;;6.40;;
12145;SDS011;6136;47.032;15.398;2023-06-22T01:59:25;13.82;;;7.93;;
12145;SDS011;6136;47.032;15.398;2023-06-22T02:02:01;10.07;;;6.82;;
12145;SDS011;6136;47.032;15.398;2023-06-22T02:04:34;11.55;;;6.80;;
12145;SDS011;6136;47.032;15.398;2023-06-22T02:07:12;10.27;;;6.47;;
12145;SDS011;6136;47.032;15.398;2023-06-22T02:09:44;12.48;;;6.75;;
12145;SDS011;6136;47.032;15.398;2023-06-22T02:12:13;17.20;;;7.20;;
12145;SDS011;6136;47.032;15.398;2023-06-22T02:14:46;8.80;;;6.30;;
12145;SDS011;6136;47.032;15.398;2023-06-22T02:17:17;13.60;;;6.82;;
12145;SDS011;6136;47.032;15.398;2023-06-22T02:19:45;12.35;;;6.38;;
12145;SDS011;6136;47.032;15.398;2023-06-22T02:22:14;11.45;;;7.05;;
12145;SDS011;6136;47.032;15.398;2023-06-22T02:24:43;16.90;;;8.05;;
12145;SDS011;6136;47.032;15.398;2023-06-22T02:27:11;21.10;;;7.30;;
12145;SDS011;6136;47.032;15.398;2023-06-22T02:29:39;13.90;;;7.30;;
12145;SDS011;6136;47.032;15.398;2023-06-22T02:32:08;11.68;;;7.13;;
12145;SDS011;6136;47.032;15.398;2023-06-22T02:34:39;8.82;;;6.50;;
12145;SDS011;6136;47.032;15.398;2023-06-22T02:37:07;12.77;;;7.30;;
12145;SDS011;6136;47.032;15.398;2023-06-22T02:39:39;10.50;;;7.20;;
12145;SDS011;6136;47.032;15.398;2023-06-22T02:42:07;8.27;;;6.68;;
12145;SDS011;6136;47.032;15.398;2023-06-22T02:44:37;9.07;;;6.22;;
12145;SDS011;6136;47.032;15.398;2023-06-22T02:47:05;15.20;;;7.32;;
12145;SDS011;6136;47.032;15.398;2023-06-22T02:49:33;9.48;;;6.93;;
12145;SDS011;6136;47.032;15.398;2023-06-22T02:52:03;11.80;;;7.10;;
12145;SDS011;6136;47.032;15.398;2023-06-22T02:54:31;10.55;;;7.38;;
12145;SDS011;6136;47.032;15.398;2023-06-22T02:57:00;11.30;;;6.78;;
12145;SDS011;6136;47.032;15.398;2023-06-22T02:59:30;13.50;;;7.30;;
12145;SDS011;6136;47.032;15.398;2023-06-22T03:02:06;10.70;;;6.40;;
12145;SDS011;6136;47.032;15.398;2023-06-22T03:04:34;14.88;;;8.02;;
12145;SDS011;6136;47.032;15.398;2023-06-22T03:07:04;15.90;;;7.90;;
12145;SDS011;6136;47.032;15.398;2023-06-22T03:09:32;9.60;;;7.47;;
12145;SDS011;6136;47.032;15.398;2023-06-22T03:12:01;16.27;;;7.78;;
12145;SDS011;6136;47.032;15.398;2023-06-22T03:14:37;12.35;;;7.85;;
12145;SDS011;6136;47.032;15.398;2023-06-22T03:17:06;13.18;;;8.40;;
12145;SDS011;6136;47.032;15.398;2023-06-22T03:19:35;16.27;;;8.40;;
12145;SDS011;6136;47.032;15.398;2023-06-22T03:22:05;11.73;;;7.95;;
12145;SDS011;6136;47.032;15.398;2023-06-22T03:24:34;12.73;;;7.85;;
12145;SDS011;6136;47.032;15.398;2023-06-22T03:27:04;19.33;;;8.82;;
12145;SDS011;6136;47.032;15.398;2023-06-22T03:29:33;10.90;;;8.00;;
12145;SDS011;6136;47.032;15.398;2023-06-22T03:32:02;13.82;;;8.93;;
12145;SDS011;6136;47.032;15.398;2023-06-22T03:34:31;11.40;;;8.13;;
12145;SDS011;6136;47.032;15.398;2023-06-22T03:37:01;11.88;;;7.60;;
12145;SDS011;6136;47.032;15.398;2023-06-22T03:39:31;11.02;;;8.15;;
12145;SDS011;6136;47.032;15.398;2023-06-22T03:41:59;11.50;;;7.53;;
12145;SDS011;6136;47.032;15.398;2023-06-22T03:44:27;13.15;;;7.57;;
12145;SDS011;6136;47.032;15.398;2023-06-22T03:46:55;17.35;;;8.35;;
12145;SDS011;6136;47.032;15.398;2023-06-22T03:49:23;15.82;;;7.95;;
12145;SDS011;6136;47.032;15.398;2023-06-22T03:51:51;18.50;;;8.32;;
12145;SDS011;6136;47.032;15.398;2023-06-22T03:54:19;14.48;;;8.40;;
12145;SDS011;6136;47.032;15.398;2023-06-22T03:56:49;11.27;;;7.47;;
12145;SDS011;6136;47.032;15.398;2023-06-22T03:59:17;12.02;;;8.32;;
12145;SDS011;6136;47.032;15.398;2023-06-22T04:01:45;12.93;;;8.43;;
12145;SDS011;6136;47.032;15.398;2023-06-22T04:04:13;16.58;;;8.60;;
12145;SDS011;6136;47.032;15.398;2023-06-22T04:06:42;14.90;;;8.13;;
12145;SDS011;6136;47.032;15.398;2023-06-22T04:09:10;12.35;;;8.15;;
12145;SDS011;6136;47.032;15.398;2023-06-22T04:11:38;15.60;;;7.78;;
12145;SDS011;6136;47.032;15.398;2023-06-22T04:14:08;12.55;;;7.72;;
12145;SDS011;6136;47.032;15.398;2023-06-22T04:16:36;15.93;;;9.05;;
12145;SDS011;6136;47.032;15.398;2023-06-22T04:19:04;15.38;;;8.90;;
12145;SDS011;6136;47.032;15.398;2023-06-22T04:21:32;16.10;;;9.02;;
12145;SDS011;6136;47.032;15.398;2023-06-22T04:24:00;15.70;;;9.32;;
12145;SDS011;6136;47.032;15.398;2023-06-22T04:26:28;16.25;;;10.02;;
12145;SDS011;6136;47.032;15.398;2023-06-22T04:28:56;16.08;;;8.95;;
12145;SDS011;6136;47.032;15.398;2023-06-22T04:31:26;15.77;;;9.68;;
12145;SDS011;6136;47.032;15.398;2023-06-22T04:33:59;20.55;;;10.48;;
12145;SDS011;6136;47.032;15.398;2023-06-22T04:36:36;13.57;;;9.15;;
12145;SDS011;6136;47.032;15.398;2023-06-22T04:39:06;17.13;;;10.43;;
12145;SDS011;6136;47.032;15.398;2023-06-22T04:41:36;17.95;;;10.27;;
12145;SDS011;6136;47.032;15.398;2023-06-22T04:44:11;12.43;;;9.63;;
12145;SDS011;6136;47.032;15.398;2023-06-22T04:46:40;13.35;;;8.60;;
12145;SDS011;6136;47.032;15.398;2023-06-22T04:49:09;14.98;;;9.70;;
12145;SDS011;6136;47.032;15.398;2023-06-22T04:51:38;13.57;;;8.98;;
12145;SDS011;6136;47.032;15.398;2023-06-22T04:54:07;13.73;;;9.60;;
12145;SDS011;6136;47.032;15.398;2023-06-22T04:56:36;14.45;;;9.25;;
12145;SDS011;6136;47.032;15.398;2023-06-22T04:59:07;13.57;;;8.23;;
12145;SDS011;6136;47.032;15.398;2023-06-22T05:01:40;12.05;;;9.35;;
12145;SDS011;6136;47.032;15.398;2023-06-22T05:04:09;13.90;;;9.23;;
12145;SDS011;6136;47.032;15.398;2023-06-22T05:06:37;17.15;;;9.43;;
12145;SDS011;6136;47.032;15.398;2023-06-22T05:09:06;17.95;;;9.73;;
12145;SDS011;6136;47.032;15.398;2023-06-22T05:11:34;18.13;;;10.10;;
12145;SDS011;6136;47.032;15.398;2023-06-22T05:14:03;16.58;;;9.68;;
12145;SDS011;6136;47.032;15.398;2023-06-22T05:16:31;14.15;;;9.45;;
12145;SDS011;6136;47.032;15.398;2023-06-22T05:19:00;19.23;;;9.27;;
12145;SDS011;6136;47.032;15.398;2023-06-22T05:21:30;14.18;;;8.73;;
12145;SDS011;6136;47.032;15.398;2023-06-22T05:23:58;16.30;;;9.57;;
12145;SDS011;6136;47.032;15.398;2023-06-22T05:26:29;16.92;;;9.38;;
12145;SDS011;6136;47.032;15.398;2023-06-22T05:28:58;14.65;;;9.55;;
12145;SDS011;6136;47.032;15.398;2023-06-22T05:31:27;15.77;;;9.13;;
12145;SDS011;6136;47.032;15.398;2023-06-22T05:33:55;20.10;;;9.80;;
12145;SDS011;6136;47.032;15.398;2023-06-22T05:36:25;20.27;;;9.75;;
12145;SDS011;6136;47.032;15.398;2023-06-22T05:38:53;15.13;;;9.57;;
12145;SDS011;6136;47.032;15.398;2023-06-22T05:41:21;15.55;;;10.23;;
12145;SDS011;6136;47.032;15.398;2023-06-22T05:43:50;16.15;;;10.00;;
12145;SDS011;6136;47.032;15.398;2023-06-22T05:46:18;21.73;;;9.02;;
12145;SDS011;6136;47.032;15.398;2023-06-22T05:48:47;13.57;;;9.45;;
12145;SDS011;6136;47.032;15.398;2023-06-22T05:51:15;18.55;;;9.38;;
12145;SDS011;6136;47.032;15.398;2023-06-22T05:53:44;16.85;;;9.60;;
12145;SDS011;6136;47.032;15.398;2023-06-22T05:56:16;17.35;;;10.10;;
12145;SDS011;6136;47.032;15.398;2023-06-22T05:58:45;21.15;;;10.02;;
12145;SDS011;6136;47.032;15.398;2023-06-22T06:01:13;18.30;;;9.60;;
12145;SDS011;6136;47.032;15.398;2023-06-22T06:03:42;14.50;;;9.13;;
12145;SDS011;6136;47.032;15.398;2023-06-22T06:06:10;17.42;;;8.30;;
12145;SDS011;6136;47.032;15.398;2023-06-22T06:08:39;14.32;;;8.77;;
12145;SDS011;6136;47.032;15.398;2023-06-22T06:11:08;14.48;;;9.02;;
12145;SDS011;6136;47.032;15.398;2023-06-22T06:13:36;12.68;;;9.13;;
12145;SDS011;6136;47.032;15.398;2023-06-22T06:16:04;15.50;;;9.77;;
12145;SDS011;6136;47.032;15.398;2023-06-22T06:18:33;13.70;;;9.27;;
12145;SDS011;6136;47.032;15.398;2023-06-22T06:21:01;14.60;;;8.98;;
12145;SDS011;6136;47.032;15.398;2023-06-22T06:23:29;15.95;;;9.77;;
12145;SDS011;6136;47.032;15.398;2023-06-22T06:25:57;15.32;;;9.13;;
12145;SDS011;6136;47.032;15.398;2023-06-22T06:28:27;18.88;;;9.77;;
12145;SDS011;6136;47.032;15.398;2023-06-22T06:30:56;16.60;;;10.07;;
12145;SDS011;6136;47.032;15.398;2023-06-22T06:33:24;14.45;;;8.82;;
12145;SDS011;6136;47.032;15.398;2023-06-22T06:35:52;14.23;;;9.10;;
12145;SDS011;6136;47.032;15.398;2023-06-22T06:38:22;14.95;;;9.38;;
12145;SDS011;6136;47.032;15.398;2023-06-22T06:40:50;14.43;;;9.00;;
12145;SDS011;6136;47.032;15.398;2023-06-22T06:43:18;12.52;;;9.10;;
12145;SDS011;6136;47.032;15.398;2023-06-22T06:45:48;16.73;;;10.15;;
12145;SDS011;6136;47.032;15.398;2023-06-22T06:48:18;19.48;;;9.40;;
12145;SDS011;6136;47.032;15.398;2023-06-22T06:50:46;16.58;;;10.10;;
12145;SDS011;6136;47.032;15.398;2023-06-22T06:53:14;15.80;;;8.77;;
12145;SDS011;6136;47.032;15.398;2023-06-22T06:55:42;15.18;;;9.52;;
12145;SDS011;6136;47.032;15.398;2023-06-22T06:58:12;13.55;;;9.35;;
12145;SDS011;6136;47.032;15.398;2023-06-22T07:00:40;17.70;;;9.63;;
12145;SDS011;6136;47.032;15.398;2023-06-22T07:03:09;15.02;;;9.30;;
12145;SDS011;6136;47.032;15.398;2023-06-22T07:05:37;15.40;;;10.02;;
12145;SDS011;6136;47.032;15.398;2023-06-22T07:08:06;15.05;;;8.77;;
12145;SDS011;6136;47.032;15.398;2023-06-22T07:10:34;24.42;;;10.00;;
12145;SDS011;6136;47.032;15.398;2023-06-22T07:13:02;23.90;;;15.10;;
12145;SDS011;6136;47.032;15.398;2023-06-22T07:15:30;17.42;;;10.77;;
12145;SDS011;6136;47.032;15.398;2023-06-22T07:17:58;14.93;;;10.10;;
12145;SDS011;6136;47.032;15.398;2023-06-22T07:20:28;16.45;;;9.57;;
12145;SDS011;6136;47.032;15.398;2023-06-22T07:22:56;13.68;;;9.02;;
12145;SDS011;6136;47.032;15.398;2023-06-22T07:25:24;14.88;;;9.30;;
12145;SDS011;6136;47.032;15.398;2023-06-22T07:27:57;15.13;;;9.27;;
12145;SDS011;6136;47.032;15.398;2023-06-22T07:30:27;13.27;;;9.80;;
12145;SDS011;6136;47.032;15.398;2023-06-22T07:32:56;15.52;;;9.40;;
12145;SDS011;6136;47.032;15.398;2023-06-22T07:35:31;12.93;;;8.73;;
12145;SDS011;6136;47.032;15.398;2023-06-22T07:37:59;15.38;;;9.07;;
12145;SDS011;6136;47.032;15.398;2023-06-22T07:40:31;12.52;;;8.85;;
12145;SDS011;6136;47.032;15.398;2023-06-22T07:42:59;12.43;;;9.05;;
12145;SDS011;6136;47.032;15.398;2023-06-22T07:45:27;15.43;;;8.43;;
12145;SDS011;6136;47.032;15.398;2023-06-22T07:47:56;14.77;;;10.30;;
12145;SDS011;6136;47.032;15.398;2023-06-22T07:50:24;12.02;;;8.90;;
12145;SDS011;6136;47.032;15.398;2023-06-22T07:52:54;15.90;;;8.63;;
12145;SDS011;6136;47.032;15.398;2023-06-22T07:55:22;13.55;;;9.65;;
12145;SDS011;6136;47.032;15.398;2023-06-22T07:57:50;11.18;;;8.82;;
12145;SDS011;6136;47.032;15.398;2023-06-22T08:00:19;14.95;;;9.27;;
12145;SDS011;6136;47.032;15.398;2023-06-22T08:02:47;15.90;;;9.95;;
12145;SDS011;6136;47.032;15.398;2023-06-22T08:05:16;15.18;;;9.70;;
12145;SDS011;6136;47.032;15.398;2023-06-22T08:07:48;13.10;;;8.93;;
12145;SDS011;6136;47.032;15.398;2023-06-22T08:10:18;13.93;;;9.20;;
12145;SDS011;6136;47.032;15.398;2023-06-22T08:12:46;15.38;;;8.85;;
12145;SDS011;6136;47.032;15.398;2023-06-22T08:15:14;15.15;;;8.93;;
12145;SDS011;6136;47.032;15.398;2023-06-22T08:17:43;11.73;;;8.75;;
12145;SDS011;6136;47.032;15.398;2023-06-22T08:20:12;13.38;;;8.70;;
12145;SDS011;6136;47.032;15.398;2023-06-22T08:22:40;15.10;;;8.70;;
12145;SDS011;6136;47.032;15.398;2023-06-22T08:25:09;12.85;;;8.30;;
12145;SDS011;6136;47.032;15.398;2023-06-22T08:27:42;12.30;;;8.65;;
12145;SDS011;6136;47.032;15.398;2023-06-22T08:30:12;14.95;;;8.45;;
12145;SDS011;6136;47.032;15.398;2023-06-22T08:32:41;11.00;;;7.60;;
12145;SDS011;6136;47.032;15.398;2023-06-22T08:35:09;13.63;;;8.98;;
12145;SDS011;6136;47.032;15.398;2023-06-22T08:37:37;14.15;;;8.55;;
12145;SDS011;6136;47.032;15.398;2023-06-22T08:40:07;15.50;;;8.07;;
12145;SDS011;6136;47.032;15.398;2023-06-22T08:42:37;12.55;;;8.30;;
12145;SDS011;6136;47.032;15.398;2023-06-22T08:45:10;15.55;;;8.32;;
12145;SDS011;6136;47.032;15.398;2023-06-22T08:47:38;14.43;;;8.23;;
12145;SDS011;6136;47.032;15.398;2023-06-22T08:50:08;16.58;;;8.90;;
12145;SDS011;6136;47.032;15.398;2023-06-22T08:52:37;14.77;;;8.75;;
12145;SDS011;6136;47.032;15.398;2023-06-22T08:55:08;15.35;;;8.52;;
12145;SDS011;6136;47.032;15.398;2023-06-22T08:57:37;12.98;;;8.77;;
12145;SDS011;6136;47.032;15.398;2023-06-22T09:00:06;14.52;;;8.30;;
12145;SDS011;6136;47.032;15.398;2023-06-22T09:02:48;13.45;;;7.20;;
12145;SDS011;6136;47.032;15.398;2023-06-22T09:05:16;12.38;;;8.48;;
12145;SDS011;6136;47.032;15.398;2023-06-22T09:07:45;10.73;;;8.15;;
12145;SDS011;6136;47.032;15.398;2023-06-22T09:10:13;10.85;;;8.40;;
12145;SDS011;6136;47.032;15.398;2023-06-22T09:12:44;11.95;;;7.43;;
12145;SDS011;6136;47.032;15.398;2023-06-22T09:15:12;12.00;;;7.68;;
12145;SDS011;6136;47.032;15.398;2023-06-22T09:17:44;11.13;;;8.00;;
12145;SDS011;6136;47.032;15.398;2023-06-22T09:20:14;11.55;;;8.32;;
12145;SDS011;6136;47.032;15.398;2023-06-22T09:22:43;12.63;;;7.95;;
12145;SDS011;6136;47.032;15.398;2023-06-22T09:25:11;11.52;;;7.72;;
12145;SDS011;6136;47.032;15.398;2023-06-22T09:27:39;15.63;;;8.68;;
12145;SDS011;6136;47.032;15.398;2023-06-22T09:30:08;10.73;;;8.32;;
12145;SDS011;6136;47.032;15.398;2023-06-22T09:32:36;20.20;;;8.65;;
12145;SDS011;6136;47.032;15.398;2023-06-22T09:35:05;13.82;;;8.90;;
12145;SDS011;6136;47.032;15.398;2023-06-22T09:37:36;14.70;;;8.77;;
12145;SDS011;6136;47.032;15.398;2023-06-22T09:40:05;12.80;;;8.43;;
12145;SDS011;6136;47.032;15.398;2023-06-22T09:42:37;15.35;;;8.98;;
12145;SDS011;6136;47.032;15.398;2023-06-22T09:45:07;11.13;;;8.32;;
12145;SDS011;6136;47.032;15.398;2023-06-22T09:47:35;11.02;;;8.23;;
12145;SDS011;6136;47.032;15.398;2023-06-22T09:50:04;11.05;;;8.20;;
12145;SDS011;6136;47.032;15.398;2023-06-22T09:52:33;9.98;;;7.70;;
12145;SDS011;6136;47.032;15.398;2023-06-22T09:55:15;12.48;;;8.43;;
12145;SDS011;6136;47.032;15.398;2023-06-22T09:57:43;11.70;;;8.27;;
12145;SDS011;6136;47.032;15.398;2023-06-22T10:00:12;10.30;;;8.95;;
12145;SDS011;6136;47.032;15.398;2023-06-22T10:02:42;13.07;;;8.43;;
12145;SDS011;6136;47.032;15.398;2023-06-22T10:05:11;8.82;;;7.35;;
12145;SDS011;6136;47.032;15.398;2023-06-22T10:07:39;15.15;;;8.00;;
12145;SDS011;6136;47.032;15.398;2023-06-22T10:10:10;14.40;;;8.27;;
12145;SDS011;6136;47.032;15.398;2023-06-22T10:12:42;10.70;;;8.02;;
12145;SDS011;6136;47.032;15.398;2023-06-22T10:15:13;15.15;;;8.77;;
12145;SDS011;6136;47.032;15.398;2023-06-22T10:17:41;13.18;;;8.18;;
12145;SDS011;6136;47.032;15.398;2023-06-22T10:20:10;10.68;;;8.48;;
12145;SDS011;6136;47.032;15.398;2023-06-22T10:22:39;14.55;;;8.15;;
12145;SDS011;6136;47.032;15.398;2023-06-22T10:25:08;10.43;;;8.18;;
12145;SDS011;6136;47.032;15.398;2023-06-22T10:27:37;16.75;;;8.15;;
12145;SDS011;6136;47.032;15.398;2023-06-22T10:30:09;13.18;;;8.40;;
12145;SDS011;6136;47.032;15.398;2023-06-22T10:32:39;11.68;;;7.93;;
12145;SDS011;6136;47.032;15.398;2023-06-22T10:35:09;12.60;;;7.85;;
12145;SDS011;6136;47.032;15.398;2023-06-22T10:37:40;13.63;;;9.48;;
12145;SDS011;6136;47.032;15.398;2023-06-22T10:40:10;13.45;;;8.70;;
12145;SDS011;6136;47.032;15.398;2023-06-22T10:42:39;11.52;;;8.48;;
12145;SDS011;6136;47.032;15.398;2023-06-22T10:45:09;12.43;;;8.13;;
12145;SDS011;6136;47.032;15.398;2023-06-22T10:47:37;11.02;;;8.20;;
12145;SDS011;6136;47.032;15.398;2023-06-22T10:50:06;14.60;;;8.45;;
12145;SDS011;6136;47.032;15.398;2023-06-22T10:52:35;11.48;;;8.40;;
12145;SDS011;6136;47.032;15.398;2023-06-22T10:55:03;12.73;;;8.50;;
12145;SDS011;6136;47.032;15.398;2023-06-22T10:57:31;13.82;;;8.25;;
12145;SDS011;6136;47.032;15.398;2023-06-22T11:00:00;12.70;;;8.55;;
12145;SDS011;6136;47.032;15.398;2023-06-22T11:02:29;10.23;;;7.25;;
12145;SDS011;6136;47.032;15.398;2023-06-22T11:04:58;12.18;;;7.93;;
12145;SDS011;6136;47.032;15.398;2023-06-22T11:07:27;11.98;;;8.45;;
12145;SDS011;6136;47.032;15.398;2023-06-22T11:09:55;14.52;;;8.68;;
12145;SDS011;6136;47.032;15.398;2023-06-22T11:12:24;20.15;;;9.38;;
12145;SDS011;6136;47.032;15.398;2023-06-22T11:14:52;14.65;;;8.88;;
12145;SDS011;6136;47.032;15.398;2023-06-22T11:17:20;13.70;;;8.90;;
12145;SDS011;6136;47.032;15.398;2023-06-22T11:19:50;13.60;;;9.55;;
12145;SDS011;6136;47.032;15.398;2023-06-22T11:22:18;10.82;;;8.35;;
12145;SDS011;6136;47.032;15.398;2023-06-22T11:24:46;10.45;;;8.43;;
12145;SDS011;6136;47.032;15.398;2023-06-22T11:27:14;12.55;;;8.98;;
12145;SDS011;6136;47.032;15.398;2023-06-22T11:29:43;16.38;;;9.18;;
12145;SDS011;6136;47.032;15.398;2023-06-22T11:32:11;12.38;;;8.52;;
12145;SDS011;6136;47.032;15.398;2023-06-22T11:34:40;10.23;;;8.18;;
12145;SDS011;6136;47.032;15.398;2023-06-22T11:37:09;9.02;;;7.80;;
12145;SDS011;6136;47.032;15.398;2023-06-22T11:39:38;17.05;;;9.93;;
12145;SDS011;6136;47.032;15.398;2023-06-22T11:42:13;24.92;;;10.23;;
12145;SDS011;6136;47.032;15.398;2023-06-22T11:44:41;11.05;;;8.50;;
12145;SDS011;6136;47.032;15.398;2023-06-22T11:47:09;13.07;;;8.48;;
12145;SDS011;6136;47.032;15.398;2023-06-22T11:49:38;11.35;;;8.68;;
12145;SDS011;6136;47.032;15.398;2023-06-22T11:52:06;15.95;;;9.50;;
12145;SDS011;6136;47.032;15.398;2023-06-22T11:54:36;14.63;;;9.23;;
12145;SDS011;6136;47.032;15.398;2023-06-22T11:57:05;15.02;;;8.70;;
12145;SDS011;6136;47.032;15.398;2023-06-22T11:59:33;12.60;;;9.05;;
12145;SDS011;6136;47.032;15.398;2023-06-22T12:02:01;12.95;;;9.57;;
12145;SDS011;6136;47.032;15.398;2023-06-22T12:04:30;13.35;;;9.15;;
12145;SDS011;6136;47.032;15.398;2023-06-22T12:06:58;11.73;;;9.10;;
12145;SDS011;6136;47.032;15.398;2023-06-22T12:09:26;15.95;;;8.88;;
12145;SDS011;6136;47.032;15.398;2023-06-22T12:11:56;12.52;;;9.20;;
12145;SDS011;6136;47.032;15.398;2023-06-22T12:14:24;10.32;;;8.18;;
12145;SDS011;6136;47.032;15.398;2023-06-22T12:16:52;15.75;;;9.52;;
12145;SDS011;6136;47.032;15.398;2023-06-22T12:19:20;12.73;;;8.82;;
12145;SDS011;6136;47.032;15.398;2023-06-22T12:21:48;17.27;;;9.10;;
12145;SDS011;6136;47.032;15.398;2023-06-22T12:24:16;13.50;;;8.20;;
12145;SDS011;6136;47.032;15.398;2023-06-22T12:26:44;16.15;;;8.75;;
12145;SDS011;6136;47.032;15.398;2023-06-22T12:29:13;14.48;;;8.95;;
12145;SDS011;6136;47.032;15.398;2023-06-22T12:31:42;18.55;;;9.82;;
12145;SDS011;6136;47.032;15.398;2023-06-22T12:34:10;12.88;;;9.32;;
12145;SDS011;6136;47.032;15.398;2023-06-22T12:36:38;21.30;;;9.32;;
12145;SDS011;6136;47.032;15.398;2023-06-22T12:39:06;13.55;;;9.05;;
12145;SDS011;6136;47.032;15.398;2023-06-22T12:41:34;15.48;;;8.10;;
12145;SDS011;6136;47.032;15.398;2023-06-22T12:44:03;15.68;;;8.77;;
12145;SDS011;6136;47.032;15.398;2023-06-22T12:46:32;11.38;;;8.70;;
12145;SDS011;6136;47.032;15.398;2023-06-22T12:49:04;12.65;;;8.88;;
12145;SDS011;6136;47.032;15.398;2023-06-22T12:51:32;13.35;;;9.05;;
12145;SDS011;6136;47.032;15.398;2023-06-22T12:54:00;20.48;;;9.65;;
12145;SDS011;6136;47.032;15.398;2023-06-22T12:56:28;17.75;;;9.10;;
12145;SDS011;6136;47.032;15.398;2023-06-22T12:58:56;12.00;;;9.27;;
12145;SDS011;6136;47.032;15.398;2023-06-22T13:01:28;12.43;;;9.63;;
12145;SDS011;6136;47.032;15.398;2023-06-22T13:03:58;13.25;;;8.65;;
12145;SDS011;6136;47.032;15.398;2023-06-22T13:06:26;12.18;;;8.80;;
12145;SDS011;6136;47.032;15.398;2023-06-22T13:08:54;15.55;;;10.02;;
12145;SDS011;6136;47.032;15.398;2023-06-22T13:11:42;16.02;;;8.98;;
12145;SDS011;6136;47.032;15.398;2023-06-22T13:14:11;21.73;;;9.95;;
12145;SDS011;6136;47.032;15.398;2023-06-22T13:16:39;11.75;;;9.98;;
12145;SDS011;6136;47.032;15.398;2023-06-22T13:19:08;17.10;;;10.02;;
12145;SDS011;6136;47.032;15.398;2023-06-22T13:21:36;14.30;;;10.02;;
12145;SDS011;6136;47.032;15.398;2023-06-22T13:24:05;15.90;;;9.52;;
12145;SDS011;6136;47.032;15.398;2023-06-22T13:26:33;14.25;;;9.35;;
12145;SDS011;6136;47.032;15.398;2023-06-22T13:29:02;19.08;;;10.10;;
12145;SDS011;6136;47.032;15.398;2023-06-22T13:31:30;13.18;;;9.63;;
12145;SDS011;6136;47.032;15.398;2023-06-22T13:33:58;19.48;;;9.32;;
12145;SDS011;6136;47.032;15.398;2023-06-22T13:36:27;15.40;;;9.43;;
12145;SDS011;6136;47.032;15.398;2023-06-22T13:38:57;14.75;;;10.00;;
12145;SDS011;6136;47.032;15.398;2023-06-22T13:41:25;12.15;;;9.82;;
12145;SDS011;6136;47.032;15.398;2023-06-22T13:43:53;19.40;;;10.90;;
12145;SDS011;6136;47.032;15.398;2023-06-22T13:46:21;14.68;;;9.65;;
12145;SDS011;6136;47.032;15.398;2023-06-22T13:48:49;12.15;;;9.75;;
12145;SDS011;6136;47.032;15.398;2023-06-22T13:51:20;13.07;;;10.00;;
12145;SDS011;6136;47.032;15.398;2023-06-22T13:53:50;11.73;;;9.57;;
12145;SDS011;6136;47.032;15.398;2023-06-22T13:56:18;15.32;;;9.90;;
12145;SDS011;6136;47.032;15.398;2023-06-22T13:58:46;13.65;;;9.98;;
12145;SDS011;6136;47.032;15.398;2023-06-22T14:01:14;19.10;;;10.45;;
12145;SDS011;6136;47.032;15.398;2023-06-22T14:03:43;16.13;;;10.45;;
12145;SDS011;6136;47.032;15.398;2023-06-22T14:06:13;16.30;;;10.18;;
12145;SDS011;6136;47.032;15.398;2023-06-22T14:08:41;13.75;;;9.75;;
12145;SDS011;6136;47.032;15.398;2023-06-22T14:11:11;14.07;;;9.15;;
12145;SDS011;6136;47.032;15.398;2023-06-22T14:13:40;14.20;;;9.77;;
12145;SDS011;6136;47.032;15.398;2023-06-22T14:16:09;11.13;;;9.50;;
12145;SDS011;6136;47.032;15.398;2023-06-22T14:18:37;13.88;;;9.40;;
12145;SDS011;6136;47.032;15.398;2023-06-22T14:21:06;11.90;;;9.98;;
12145;SDS011;6136;47.032;15.398;2023-06-22T14:23:34;15.63;;;9.90;;
12145;SDS011;6136;47.032;15.398;2023-06-22T14:26:02;15.10;;;9.60;;
12145;SDS011;6136;47.032;15.398;2023-06-22T14:28:31;15.57;;;9.75;;
12145;SDS011;6136;47.032;15.398;2023-06-22T14:30:59;13.13;;;10.50;;
12145;SDS011;6136;47.032;15.398;2023-06-22T14:33:28;15.68;;;10.95;;
12145;SDS011;6136;47.032;15.398;2023-06-22T14:35:56;14.02;;;10.90;;
12145;SDS011;6136;47.032;15.398;2023-06-22T14:38:24;15.65;;;9.38;;
12145;SDS011;6136;47.032;15.398;2023-06-22T14:40:52;18.55;;;10.02;;
12145;SDS011;6136;47.032;15.398;2023-06-22T14:43:25;14.70;;;10.68;;
12145;SDS011;6136;47.032;15.398;2023-06-22T14:45:54;15.32;;;9.75;;